Flight Track Log - Related Links

Times and Time Zones

All times are in EDT time to prevent confusion due to time zone crossing. See the UAL4234 flight status page for this flight to view local times or setup timezone preferences in your user account.

Time Position Orientation Groundspeed Altitude Reporting Facility
EDT Latitude Longitude Course Direction KTS MPH feet Rate Location/Type
Sat 10:25:49 PM 29.9639 -95.3458 291° West 171 197 700  Level Houston Center
Sat 10:27:02 PM 29.9528 -95.4072 258° West 255 293 3,100 1,875 Climbing Houston Center
Sat 10:27:57 PM 29.9619 -95.4833 278° West 261 300 4,700 1,562 Climbing Houston Center
Sat 10:28:15 PM 29.9642 -95.4894 293° West 253 291 5,000 2,687 Climbing Houston Center
Sat 10:29:00 PM 30.0312 -95.7810 277° West  Level FlightAware Approximate
Sat 10:29:04 PM 29.9783 -95.5731 281° West 264 304 7,700  Level Houston Center
Sat 10:30:00 PM 30.0412 -95.8936 276° West  Level FlightAware Approximate
Sat 10:30:04 PM 29.9967 -95.6603 284° West 284 327 9,800  Level Houston Center
Sat 10:31:00 PM 30.0520 -96.0058 291° West  Level FlightAware Approximate
Sat 10:31:17 PM 30.0178 -95.7733 282° West 302 348 11,100  Level Houston Center
Sat 10:32:18 PM 30.0364 -95.8772 282° West 329 379 13,400 2,164 Climbing Houston Center
Sat 10:33:19 PM 30.0547 -95.9778 282° West 323 372 15,500 2,033 Climbing Houston Center
Sat 10:34:19 PM 30.0769 -96.0719 285° West 317 365 17,500 1,934 Climbing Houston Center
Sat 10:35:20 PM 30.1108 -96.1661 293° West 317 365 19,400 1,869 Climbing Houston Center
Sat 10:36:21 PM 30.1422 -96.2642 290° West 322 371 21,300 1,328 Climbing Houston Center
Sat 10:37:22 PM 30.1778 -96.3675 292° West 338 389 22,100 1,140 Climbing Houston Center
Sat 10:38:22 PM 30.2136 -96.4794 290° West 363 418 23,600 1,636 Climbing Houston Center
Sat 10:39:23 PM 30.2500 -96.5897 291° West 362 417 25,400 1,623 Climbing Houston Center
Sat 10:40:24 PM 30.2847 -96.6956 291° West 351 404 26,900 1,426 Climbing Houston Center
Sat 10:41:25 PM 30.3194 -96.8028 291° West 352 405 28,300 1,339 Climbing Houston Center
Sat 10:42:25 PM 30.3542 -96.9089 291° West 349 402 29,600 843 Climbing Houston Center
Sat 10:43:26 PM 30.3897 -97.0169 291° West 354 407 30,000 197 Climbing Houston Center
Sat 10:44:27 PM 30.4272 -97.1394 290° West 392 451 30,000  Level Houston Center
Sat 10:45:28 PM 30.4692 -97.2617 292° West 403 464 30,000 446 Level Houston Center
Sat 10:46:28 PM 30.5086 -97.3878 290° West 408 470 30,900 942 Climbing Houston Center
Sat 10:47:29 PM 30.5483 -97.5089 291° West 398 458 31,900 541 Climbing Houston Center
Sat 10:48:30 PM 30.5869 -97.6339 290° West 403 464 32,000 49 Climbing Houston Center
Sat 10:49:31 PM 30.6281 -97.7572 291° West 406 467 32,000  Level Houston Center
Sat 10:50:31 PM 30.6669 -97.8808 290° West 403 464 32,000  Level Houston Center
Sat 10:51:32 PM 30.7058 -98.0061 290° West 407 468 32,000  Level Houston Center
Sat 10:52:33 PM 30.7444 -98.1319 290° West 409 471 32,000  Level Houston Center
Sat 10:53:33 PM 30.7842 -98.2567 290° West 407 468 32,000  Level Houston Center
Sat 10:54:34 PM 30.8239 -98.3828 290° West 410 472 32,000  Level Houston Center
Sat 10:55:34 PM 30.8631 -98.5094 290° West 412 474 32,000  Level Houston Center
Sat 10:56:35 PM 30.9025 -98.6367 290° West 414 476 32,000  Level Houston Center
Sat 10:57:36 PM 30.9425 -98.7653 290° West 416 479 32,000  Level Houston Center
Sat 10:58:36 PM 30.9822 -98.8939 290° West 418 481 32,000  Level Houston Center
Sat 10:59:37 PM 31.0219 -99.0214 290° West 416 479 32,000  Level Houston Center
Sat 11:00:37 PM 31.0594 -99.1478 289° West 409 471 32,000  Level Houston Center
Sat 11:01:38 PM 31.0947 -99.2622 290° West 397 457 32,000  Level Houston Center
Sat 11:02:38 PM 31.1306 -99.3819 289° West 394 453 32,000  Level Houston Center
Sat 11:03:39 PM 31.1667 -99.5014 289° West 391 450 32,000  Level Houston Center
Sat 11:04:39 PM 31.2031 -99.6214 290° West 393 452 32,000  Level Houston Center
Sat 11:05:40 PM 31.2406 -99.7458 289° West 404 465 32,000  Level Houston Center
Sat 11:06:40 PM 31.2747 -99.8631 289° West 381 438 32,000  Level Houston Center
Sat 11:07:41 PM 31.3175 -100.0042 290° West 382 440 32,000  Level Houston Center
Sat 11:08:41 PM 31.3525 -100.1228 289° West 382 440 32,000 -50 Level Houston Center
Sat 11:09:42 PM 31.3881 -100.2411 289° West 384 442 31,900 -595 Descending Houston Center
Sat 11:10:42 PM 31.4233 -100.3650 288° West 402 463 30,800 -1,289 Descending Houston Center
Sat 11:11:43 PM 31.4597 -100.4894 289° West 406 467 29,300 -1,333 Descending Houston Center
Sat 11:12:39 PM 31.4922 -100.6022 289° West 398 458 28,200 -1,448 Descending Fort Worth Center
Sat 11:13:39 PM 31.5325 -100.7450 288° West 410 472 26,500 -1,600 Descending Fort Worth Center
Sat 11:14:39 PM 31.5686 -100.8708 289° West 410 472 25,000 -1,500 Descending Fort Worth Center
Sat 11:15:39 PM 31.6067 -101.0014 289° West 415 478 23,500 -1,450 Descending Fort Worth Center
Sat 11:16:39 PM 31.6406 -101.1272 288° West 415 478 22,100 -1,450 Descending Fort Worth Center
Sat 11:17:39 PM 31.6786 -101.2506 290° West 410 472 20,600 -1,500 Descending Fort Worth Center
Sat 11:18:39 PM 31.7125 -101.3692 289° West 405 466 19,100 -1,550 Descending Fort Worth Center
Sat 11:19:39 PM 31.7464 -101.4856 289° West 386 444 17,500 -1,600 Descending Fort Worth Center
Sat 11:20:39 PM 31.7764 -101.5944 288° West 369 425 15,900 -1,650 Descending Fort Worth Center
Sat 11:21:39 PM 31.8042 -101.6983 287° West 356 410 14,200 -1,700 Descending Fort Worth Center
Sat 11:22:39 PM 31.8339 -101.8025 289° West 343 395 12,500 -1,750 Descending Fort Worth Center
Sat 11:23:39 PM 31.8597 -101.8989 288° West 332 382 10,700 -1,700 Descending Fort Worth Center
Sat 11:24:39 PM 31.8800 -101.9708 288° West 286 329 9,100 -1,850 Descending Fort Worth Center
Sat 11:25:39 PM 31.8964 -102.0378 286° West 243 280 7,000 -2,100 Descending Fort Worth Center

Login

Don't have an account? Register now (free) for customized features, flight alerts, and more!